createdAt,value
2023-04-08T00:02:15.909Z,38.97
2023-04-08T00:05:06.732Z,38.75
2023-04-08T00:07:55.385Z,38.66
2023-04-08T00:10:44.066Z,39.01
2023-04-08T00:13:32.662Z,38.84
2023-04-08T00:16:21.320Z,39.01
2023-04-08T00:19:09.970Z,39.07
2023-04-08T00:21:59.935Z,38.89
2023-04-08T00:24:48.620Z,39.01
2023-04-08T00:27:37.274Z,38.78
2023-04-08T00:30:27.323Z,39.10
2023-04-08T00:33:16.634Z,38.75
2023-04-08T00:36:05.505Z,38.65
2023-04-08T00:38:55.551Z,38.52
2023-04-08T00:41:44.439Z,38.64
2023-04-08T00:44:33.174Z,38.88
2023-04-08T00:47:21.945Z,39.04
2023-04-08T00:50:11.759Z,39.21
2023-04-08T00:53:00.440Z,39.14
2023-04-08T00:55:50.396Z,39.06
2023-04-08T00:58:39.491Z,39.25
2023-04-08T01:01:34.455Z,38.89
2023-04-08T01:04:29.053Z,39.28
2023-04-08T01:07:20.426Z,38.99
2023-04-08T01:10:14.498Z,39.02
2023-04-08T01:13:08.539Z,39.34
2023-04-08T01:15:57.419Z,39.15
2023-04-08T01:18:46.659Z,39.22
2023-04-08T01:21:35.328Z,39.15
2023-04-08T01:24:28.160Z,39.08
2023-04-08T01:27:18.885Z,39.31
2023-04-08T01:30:09.950Z,39.01
2023-04-08T01:32:59.670Z,38.98
2023-04-08T01:35:48.432Z,38.89
2023-04-08T01:38:38.720Z,38.82
2023-04-08T01:41:27.512Z,39.27
2023-04-08T01:44:18.174Z,39.11
2023-04-08T01:47:07.060Z,39.40
2023-04-08T01:49:56.143Z,38.90
2023-04-08T01:52:45.857Z,39.20
2023-04-08T01:55:34.938Z,39.10
2023-04-08T01:58:23.729Z,39.53
2023-04-08T02:01:15.742Z,39.12
2023-04-08T02:04:05.600Z,39.54
2023-04-08T02:06:54.553Z,39.31
2023-04-08T02:09:43.221Z,39.29
2023-04-08T02:12:31.968Z,39.48
2023-04-08T02:15:20.626Z,40.02
2023-04-08T02:18:14.626Z,39.81
2023-04-08T02:21:08.889Z,39.83
2023-04-08T02:23:57.954Z,39.79
2023-04-08T02:26:47.258Z,39.67
2023-04-08T02:29:37.448Z,39.70
2023-04-08T02:32:27.223Z,39.49
2023-04-08T02:35:17.780Z,39.64
2023-04-08T02:38:06.532Z,39.64
2023-04-08T02:40:55.422Z,39.46
2023-04-08T02:43:44.190Z,39.70
2023-04-08T02:46:32.726Z,39.95
2023-04-08T02:49:21.336Z,39.30
2023-04-08T02:52:11.337Z,39.58
2023-04-08T02:54:59.935Z,39.49
2023-04-08T02:57:49.736Z,39.56
2023-04-08T03:00:39.718Z,39.36
2023-04-08T03:03:29.796Z,40.02
2023-04-08T03:06:18.515Z,40.12
2023-04-08T03:09:08.621Z,39.55
2023-04-08T03:11:57.186Z,39.84
2023-04-08T03:14:45.776Z,39.40
2023-04-08T03:17:34.744Z,39.86
2023-04-08T03:20:23.474Z,39.89
2023-04-08T03:23:12.103Z,39.66
2023-04-08T03:26:02.178Z,39.76
2023-04-08T03:28:53.174Z,39.76
2023-04-08T03:31:41.951Z,39.40
2023-04-08T03:34:30.631Z,39.97
2023-04-08T03:37:19.196Z,39.77
2023-04-08T03:40:09.391Z,40.09
2023-04-08T03:42:59.332Z,39.85
2023-04-08T03:45:47.986Z,40.17
2023-04-08T03:48:36.684Z,40.10
2023-04-08T03:51:25.476Z,40.44
2023-04-08T03:54:14.084Z,40.45
2023-04-08T03:57:02.767Z,40.21
2023-04-08T03:59:52.692Z,40.26
2023-04-08T04:02:41.502Z,40.50
2023-04-08T04:05:30.472Z,40.16
2023-04-08T04:08:19.125Z,39.90
2023-04-08T04:11:07.789Z,40.18
2023-04-08T04:13:56.408Z,40.61
2023-04-08T04:16:46.425Z,40.27
2023-04-08T04:19:34.998Z,40.26
2023-04-08T04:22:23.660Z,39.91
2023-04-08T04:25:12.278Z,40.20
2023-04-08T04:28:01.783Z,40.03
2023-04-08T04:30:50.547Z,40.33
2023-04-08T04:33:40.656Z,40.28
2023-04-08T04:36:29.207Z,40.46
2023-04-08T04:39:17.761Z,40.33
2023-04-08T04:42:06.625Z,40.57
2023-04-08T04:44:55.555Z,40.36
2023-04-08T04:47:44.227Z,40.46
2023-04-08T04:50:34.284Z,39.97
2023-04-08T04:53:22.892Z,40.39
2023-04-08T04:56:11.535Z,40.04
2023-04-08T04:59:00.200Z,39.97
2023-04-08T05:01:48.909Z,40.43
2023-04-08T05:04:37.590Z,40.38
2023-04-08T05:07:27.777Z,40.70
2023-04-08T05:10:16.564Z,40.42
2023-04-08T05:13:05.386Z,40.73
2023-04-08T05:15:54.093Z,40.27
2023-04-08T05:18:42.691Z,40.25
2023-04-08T05:21:32.666Z,40.37
2023-04-08T05:24:22.611Z,40.61
2023-04-08T05:27:11.252Z,40.68
2023-04-08T05:29:59.846Z,40.69
2023-04-08T05:32:48.468Z,40.45
2023-04-08T05:35:37.619Z,40.63
2023-04-08T05:38:26.587Z,40.45
2023-04-08T05:41:16.570Z,40.59
2023-04-08T05:44:05.459Z,40.58
2023-04-08T05:46:55.552Z,40.78
2023-04-08T05:49:44.224Z,40.58
2023-04-08T05:52:32.824Z,40.52
2023-04-08T05:55:21.471Z,40.45
2023-04-08T05:58:11.507Z,40.86
2023-04-08T06:01:00.024Z,40.79
2023-04-08T06:03:48.792Z,41.11
2023-04-08T06:06:39.972Z,40.51
2023-04-08T06:09:28.606Z,41.00
2023-04-08T06:12:17.219Z,40.50
2023-04-08T06:15:08.530Z,40.83
2023-04-08T06:17:57.188Z,39.98
2023-04-08T06:20:46.128Z,40.34
2023-04-08T06:23:34.974Z,40.36
2023-04-08T06:26:23.542Z,40.00
2023-04-08T06:29:12.225Z,40.03
2023-04-08T06:32:02.459Z,40.22
2023-04-08T06:34:51.112Z,39.48
2023-04-08T06:37:39.760Z,39.91
2023-04-08T06:40:28.414Z,39.65
2023-04-08T06:43:16.997Z,39.58
2023-04-08T06:46:06.109Z,39.59
2023-04-08T06:48:56.629Z,39.57
2023-04-08T06:51:45.295Z,39.13
2023-04-08T06:54:33.924Z,39.39
2023-04-08T06:57:22.647Z,38.94
2023-04-08T07:00:12.372Z,39.04
2023-04-08T07:03:01.077Z,39.27
2023-04-08T07:05:51.415Z,38.81
2023-04-08T07:08:42.974Z,38.82
2023-04-08T07:11:31.591Z,38.60
2023-04-08T07:14:20.491Z,38.60
2023-04-08T07:17:09.180Z,39.00
2023-04-08T07:19:57.876Z,38.94
2023-04-08T07:22:48.725Z,38.70
2023-04-08T07:25:37.386Z,39.03
2023-04-08T07:28:26.034Z,38.75
2023-04-08T07:31:16.397Z,38.93
2023-04-08T07:34:05.077Z,38.93
2023-04-08T07:36:53.673Z,38.98
2023-04-08T07:39:43.614Z,39.23
2023-04-08T07:42:32.338Z,39.28
2023-04-08T07:45:21.186Z,39.13
2023-04-08T07:48:09.835Z,38.36
2023-04-08T07:51:08.066Z,37.03
2023-04-08T07:53:59.093Z,37.75
2023-04-08T07:56:49.094Z,36.46
2023-04-08T07:59:38.060Z,35.82
2023-04-08T08:02:26.884Z,37.05
2023-04-08T08:05:15.762Z,37.44
2023-04-08T08:08:04.412Z,37.90
2023-04-08T08:10:53.020Z,38.23
2023-04-08T08:13:42.950Z,38.01
2023-04-08T08:16:31.875Z,38.33
2023-04-08T08:19:20.729Z,38.14
2023-04-08T08:22:09.292Z,38.20
2023-04-08T08:24:59.367Z,38.24
2023-04-08T08:27:48.434Z,38.09
2023-04-08T08:30:38.832Z,38.17
2023-04-08T08:33:27.780Z,38.32
2023-04-08T08:36:16.393Z,38.50
2023-04-08T08:39:05.082Z,38.15
2023-04-08T08:41:53.624Z,38.11
2023-04-08T08:44:42.494Z,38.05
2023-04-08T08:47:32.490Z,38.20
2023-04-08T08:50:21.444Z,38.03
2023-04-08T08:53:10.121Z,38.55
2023-04-08T08:58:50.177Z,38.10
2023-04-08T09:01:41.280Z,37.98
2023-04-08T09:04:31.590Z,38.12
2023-04-08T09:07:20.219Z,38.41
2023-04-08T09:10:10.594Z,38.20
2023-04-08T09:13:00.428Z,38.13
2023-04-08T09:16:05.951Z,38.35
2023-04-08T09:18:54.586Z,38.29
2023-04-08T09:21:44.507Z,38.12
2023-04-08T09:24:33.153Z,38.37
2023-04-08T09:27:35.653Z,38.15
2023-04-08T09:30:26.442Z,38.32
2023-04-08T09:33:15.496Z,38.05
2023-04-08T09:36:04.188Z,37.93
2023-04-08T09:38:54.766Z,37.99
2023-04-08T09:41:44.412Z,37.95
2023-04-08T09:44:34.631Z,37.99
2023-04-08T09:47:26.505Z,37.94
2023-04-08T09:50:15.840Z,38.38
2023-04-08T09:53:13.074Z,37.88
2023-04-08T09:56:04.365Z,37.97
2023-04-08T09:58:55.705Z,38.41
2023-04-08T10:01:47.291Z,38.14
2023-04-08T10:04:38.592Z,38.15
2023-04-08T10:07:27.547Z,38.04
2023-04-08T10:10:16.441Z,38.30
2023-04-08T10:13:06.537Z,38.34
2023-04-08T10:16:27.071Z,37.93
2023-04-08T10:19:39.510Z,37.90
2023-04-08T10:22:49.856Z,38.00
2023-04-08T10:25:40.379Z,38.01
2023-04-08T10:28:30.646Z,38.04
2023-04-08T10:31:24.001Z,38.21
2023-04-08T10:34:22.850Z,37.89
2023-04-08T10:37:12.011Z,38.08
2023-04-08T10:40:00.753Z,37.90
2023-04-08T10:42:49.277Z,37.83
2023-04-08T10:45:39.699Z,37.62
2023-04-08T10:48:29.145Z,37.88
2023-04-08T10:51:17.774Z,37.79
2023-04-08T10:54:11.898Z,37.53
2023-04-08T10:57:00.493Z,37.73
2023-04-08T10:59:49.089Z,37.44
2023-04-08T11:02:41.416Z,37.97
2023-04-08T11:05:30.172Z,37.74
2023-04-08T11:08:20.884Z,37.83
2023-04-08T11:11:11.133Z,37.87
2023-04-08T11:13:59.914Z,37.74
2023-04-08T11:16:48.638Z,37.61
2023-04-08T11:19:42.348Z,37.57
2023-04-08T11:22:33.501Z,37.92
2023-04-08T11:25:22.284Z,37.99
2023-04-08T11:28:10.885Z,37.95
2023-04-08T11:30:59.598Z,37.66
2023-04-08T11:33:49.766Z,37.97
2023-04-08T11:36:42.342Z,37.59
2023-04-08T11:39:30.941Z,38.14
2023-04-08T11:42:28.995Z,37.91
2023-04-08T11:45:19.545Z,37.68
2023-04-08T11:48:11.466Z,37.92
2023-04-08T11:51:04.947Z,38.07
2023-04-08T11:53:56.408Z,37.58
2023-04-08T11:56:48.592Z,37.87
2023-04-08T11:59:37.281Z,38.20
2023-04-08T12:02:26.133Z,37.81
2023-04-08T12:05:15.953Z,37.67
2023-04-08T12:08:04.599Z,37.84
2023-04-08T12:10:54.908Z,38.07
2023-04-08T12:13:43.544Z,37.95
2023-04-08T12:16:32.257Z,37.84
2023-04-08T12:19:21.001Z,37.59
2023-04-08T12:22:09.634Z,38.01
2023-04-08T12:24:59.348Z,37.67
2023-04-08T12:27:49.315Z,38.04
2023-04-08T12:30:38.196Z,38.05
2023-04-08T12:33:26.884Z,38.01
2023-04-08T12:36:15.520Z,37.85
2023-04-08T12:39:04.176Z,37.83
2023-04-08T12:41:52.855Z,37.74
2023-04-08T12:44:42.875Z,37.64
2023-04-08T12:47:31.502Z,37.95
2023-04-08T12:50:20.167Z,37.53
2023-04-08T12:53:08.747Z,37.47
2023-04-08T12:55:58.149Z,37.77
2023-04-08T12:58:47.016Z,37.78
2023-04-08T13:01:37.186Z,37.81
2023-04-08T13:04:25.733Z,37.88
2023-04-08T13:07:14.367Z,37.55
2023-04-08T13:10:03.535Z,37.95
2023-04-08T13:12:52.093Z,37.77
2023-04-08T13:15:40.635Z,37.50
2023-04-08T13:18:30.550Z,38.06
2023-04-08T13:21:19.326Z,37.88
2023-04-08T13:24:08.191Z,38.04
2023-04-08T13:26:57.514Z,37.48
2023-04-08T13:29:46.084Z,38.01
2023-04-08T13:32:34.752Z,38.01
2023-04-08T13:35:24.904Z,37.78
2023-04-08T13:38:13.906Z,37.96
2023-04-08T13:41:02.728Z,37.44
2023-04-08T13:43:51.447Z,37.87
2023-04-08T13:46:40.069Z,37.55
2023-04-08T13:49:28.791Z,37.93
2023-04-08T13:52:18.833Z,37.76
2023-04-08T13:55:08.323Z,37.42
2023-04-08T13:57:57.184Z,37.38
2023-04-08T14:00:46.240Z,37.91
2023-04-08T14:03:34.859Z,37.53
2023-04-08T14:06:23.396Z,37.63
2023-04-08T14:09:13.579Z,37.44
2023-04-08T14:12:02.214Z,37.26
2023-04-08T14:14:50.862Z,37.49
2023-04-08T14:17:39.608Z,37.87
2023-04-08T14:20:28.652Z,37.36
2023-04-08T14:23:17.548Z,37.51
2023-04-08T14:26:07.615Z,37.51
2023-04-08T14:28:56.152Z,37.23
2023-04-08T14:31:44.711Z,37.31
2023-04-08T14:34:33.358Z,37.48
2023-04-08T14:37:21.985Z,37.25
2023-04-08T14:40:11.802Z,37.29
2023-04-08T14:43:01.723Z,37.24
2023-04-08T14:45:52.141Z,37.43
2023-04-08T14:48:40.712Z,37.26
2023-04-08T14:51:30.130Z,37.33
2023-04-08T14:54:18.997Z,37.43
2023-04-08T14:57:07.612Z,37.37
2023-04-08T14:59:57.587Z,37.20
2023-04-08T15:02:46.246Z,37.55
2023-04-08T15:05:36.668Z,37.45
2023-04-08T15:08:25.573Z,37.68
2023-04-08T15:11:14.196Z,37.54
2023-04-08T15:14:02.794Z,37.41
2023-04-08T15:16:52.759Z,37.68
2023-04-08T15:19:41.372Z,37.35
2023-04-08T15:22:29.905Z,37.22
2023-04-08T15:25:18.551Z,37.38
2023-04-08T15:28:07.096Z,37.19
2023-04-08T15:30:56.158Z,37.29
2023-04-08T15:33:47.634Z,37.36
2023-04-08T15:36:37.765Z,37.36
2023-04-08T15:39:26.730Z,37.14
2023-04-08T15:42:15.286Z,37.40
2023-04-08T15:45:05.275Z,37.13
2023-04-08T15:47:53.907Z,37.52
2023-04-08T15:50:43.979Z,37.47
2023-04-08T15:53:32.642Z,37.33
2023-04-08T15:56:21.410Z,37.17
2023-04-08T15:59:10.096Z,37.28
2023-04-08T16:01:58.805Z,37.06
2023-04-08T16:04:47.702Z,37.28
2023-04-08T16:07:37.739Z,37.51
2023-04-08T16:10:26.361Z,37.09
2023-04-08T16:13:14.956Z,37.08
2023-04-08T16:16:04.237Z,36.97
2023-04-08T16:18:53.472Z,37.58
2023-04-08T16:21:44.074Z,37.04
2023-04-08T16:24:37.334Z,37.19
2023-04-08T16:27:25.997Z,37.62
2023-04-08T16:30:15.756Z,36.80
2023-04-08T16:33:04.524Z,36.41
2023-04-08T16:35:54.202Z,36.92
2023-04-08T16:38:42.881Z,36.70
2023-04-08T16:41:33.381Z,36.28
2023-04-08T16:44:22.255Z,36.69
2023-04-08T16:47:12.134Z,36.11
2023-04-08T16:50:03.567Z,36.15
2023-04-08T16:52:52.174Z,36.40
2023-04-08T16:55:40.726Z,36.01
2023-04-08T16:58:32.690Z,35.91
2023-04-08T17:01:21.579Z,35.91
2023-04-08T17:04:10.737Z,36.24
2023-04-08T17:07:00.054Z,36.16
2023-04-08T17:09:52.773Z,36.15
2023-04-08T17:12:41.597Z,36.80
2023-04-08T17:15:32.036Z,36.56
2023-04-08T17:18:20.755Z,36.49
2023-04-08T17:21:09.740Z,36.61
2023-04-08T17:23:58.592Z,37.17
2023-04-08T17:26:47.910Z,37.61
2023-04-08T17:29:36.569Z,37.11
2023-04-08T17:32:27.265Z,37.34
2023-04-08T17:35:15.969Z,37.33
2023-04-08T17:38:07.738Z,37.59
2023-04-08T17:40:56.402Z,37.74
2023-04-08T17:43:45.904Z,37.90
2023-04-08T17:46:37.559Z,37.58
2023-04-08T17:49:28.956Z,37.61
2023-04-08T17:52:17.559Z,38.31
2023-04-08T17:55:07.861Z,38.25
2023-04-08T17:58:00.762Z,38.31
2023-04-08T18:00:51.558Z,38.08
2023-04-08T18:03:42.488Z,38.28
2023-04-08T18:06:32.930Z,38.24
2023-04-08T18:09:21.537Z,38.39
2023-04-08T18:12:10.095Z,38.41
2023-04-08T18:15:00.153Z,38.63
2023-04-08T18:17:48.982Z,38.13
2023-04-08T18:20:38.135Z,38.56
2023-04-08T18:23:28.089Z,38.32
2023-04-08T18:26:16.685Z,38.31
2023-04-08T18:29:05.293Z,38.54
2023-04-08T18:31:53.912Z,38.36
2023-04-08T18:34:42.476Z,37.86
2023-04-08T18:37:32.378Z,37.88
2023-04-08T18:40:24.128Z,37.69
2023-04-08T18:43:13.911Z,38.15
2023-04-08T18:46:03.118Z,38.07
2023-04-08T18:48:53.103Z,38.38
2023-04-08T18:51:55.193Z,37.98
2023-04-08T18:54:52.980Z,37.55
2023-04-08T18:57:44.788Z,37.36
2023-04-08T19:00:37.258Z,37.15
2023-04-08T19:03:29.165Z,37.17
2023-04-08T19:06:23.122Z,36.95
2023-04-08T19:09:11.940Z,36.92
2023-04-08T19:12:00.767Z,36.37
2023-04-08T19:14:55.175Z,36.82
2023-04-08T19:17:45.018Z,36.76
2023-04-08T19:20:35.496Z,36.72
2023-04-08T19:23:26.936Z,36.70
2023-04-08T19:26:16.614Z,36.63
2023-04-08T19:29:07.499Z,36.52
2023-04-08T19:31:59.545Z,36.27
2023-04-08T19:34:49.610Z,36.39
2023-04-08T19:37:38.301Z,36.17
2023-04-08T19:40:27.188Z,36.53
2023-04-08T19:43:16.040Z,36.14
2023-04-08T19:46:04.884Z,36.25
2023-04-08T19:48:58.759Z,36.27
2023-04-08T19:51:47.426Z,37.39
2023-04-08T19:54:36.489Z,37.54
2023-04-08T19:57:25.471Z,37.21
2023-04-08T20:00:14.544Z,37.85
2023-04-08T20:03:03.336Z,37.54
2023-04-08T20:05:53.747Z,37.56
2023-04-08T20:08:42.345Z,37.44
2023-04-08T20:11:31.023Z,37.88
2023-04-08T20:14:19.649Z,37.79
2023-04-08T20:17:11.410Z,37.60
2023-04-08T20:20:00.139Z,37.67
2023-04-08T20:22:50.405Z,37.90
2023-04-08T20:25:39.038Z,37.84
2023-04-08T20:28:27.781Z,37.55
2023-04-08T20:31:16.443Z,37.45
2023-04-08T20:34:05.057Z,37.73
2023-04-08T20:36:53.747Z,37.68
2023-04-08T20:39:43.886Z,37.75
2023-04-08T20:42:32.573Z,37.62
2023-04-08T20:45:21.476Z,37.30
2023-04-08T20:48:10.131Z,37.44
2023-04-08T20:50:58.793Z,37.55
2023-04-08T20:53:47.340Z,37.39
2023-04-08T20:56:37.447Z,36.68
2023-04-08T20:59:26.105Z,36.59
2023-04-08T21:02:15.733Z,36.54
2023-04-08T21:05:04.735Z,36.58
2023-04-08T21:07:53.407Z,36.34
2023-04-08T21:10:42.000Z,36.22
2023-04-08T21:13:32.174Z,36.21
2023-04-08T21:16:20.862Z,36.08
2023-04-08T21:19:09.507Z,36.27
2023-04-08T21:21:58.360Z,35.89
2023-04-08T21:24:46.953Z,35.91
2023-04-08T21:27:35.605Z,35.87
2023-04-08T21:30:25.938Z,35.75
2023-04-08T21:33:14.524Z,36.03
2023-04-08T21:36:03.649Z,36.07
2023-04-08T21:38:52.691Z,35.42
2023-04-08T21:41:42.227Z,35.73
2023-04-08T21:44:30.980Z,35.56
2023-04-08T21:47:21.056Z,35.63
2023-04-08T21:50:10.663Z,35.46
2023-04-08T21:52:59.972Z,35.54
2023-04-08T21:55:48.670Z,35.21
2023-04-08T21:58:37.862Z,35.06
2023-04-08T22:01:26.639Z,34.85
2023-04-08T22:04:16.933Z,36.00
2023-04-08T22:07:05.630Z,36.51
2023-04-08T22:09:55.528Z,36.97
2023-04-08T22:13:01.863Z,37.00
2023-04-08T22:15:50.604Z,36.94
2023-04-08T22:18:39.282Z,36.65
2023-04-08T22:21:30.099Z,36.50
2023-04-08T22:24:19.057Z,36.96
2023-04-08T22:27:07.705Z,36.53
2023-04-08T22:29:56.308Z,36.66
2023-04-08T22:32:44.859Z,37.05
2023-04-08T22:35:33.537Z,37.13
2023-04-08T22:38:23.538Z,37.28
2023-04-08T22:41:21.699Z,36.76
2023-04-08T22:44:10.288Z,37.18
2023-04-08T22:46:58.894Z,37.10
2023-04-08T22:49:47.547Z,36.80
2023-04-08T22:52:36.262Z,37.13
2023-04-08T22:55:26.335Z,37.01
2023-04-08T22:58:14.920Z,37.05
2023-04-08T23:01:05.209Z,36.97
2023-04-08T23:03:53.959Z,36.97
2023-04-08T23:06:42.578Z,37.23
2023-04-08T23:09:31.161Z,36.98
2023-04-08T23:12:21.246Z,37.28
2023-04-08T23:15:10.293Z,37.40
2023-04-08T23:17:58.912Z,37.27
2023-04-08T23:20:52.856Z,36.93
2023-04-08T23:23:41.497Z,37.08
2023-04-08T23:26:30.123Z,37.04
2023-04-08T23:29:20.184Z,37.01
2023-04-08T23:32:08.818Z,36.69
2023-04-08T23:34:57.424Z,36.88
2023-04-08T23:37:46.389Z,36.83
2023-04-08T23:40:35.080Z,36.96
2023-04-08T23:43:23.818Z,37.02
2023-04-08T23:46:13.973Z,36.85
2023-04-08T23:49:02.611Z,37.05
2023-04-08T23:51:51.203Z,37.16
2023-04-08T23:54:40.016Z,36.92
2023-04-08T23:57:28.585Z,36.61
